Time;durP1;ratioP1;P1;durP2;ratioP2;P2;SDS_P1;SDS_P2;PMS_P1;PMS_P2;Temp;Humidity;BMP_temperature;BMP_pressure;BME280_temperature;BME280_humidity;BME280_pressure;Samples;Min_cycle;Max_cycle;Signal;HPM_P1;HPM_P2
2021/04/18 00:01:04;;;;;;;8.57;5.60;;;9.50;99.90;;;;;;5088853;28;20257;-75
2021/04/18 00:03:31;;;;;;;7.90;5.40;;;9.50;99.90;;;;;;5088554;28;20590;-78
2021/04/18 00:05:57;;;;;;;7.93;5.67;;;9.50;99.90;;;;;;5088776;28;20219;-77
2021/04/18 00:08:23;;;;;;;8.43;5.40;;;9.50;99.90;;;;;;5088066;28;20226;-76
2021/04/18 00:10:49;;;;;;;7.93;5.77;;;9.60;99.90;;;;;;5088520;28;20213;-77
2021/04/18 00:13:16;;;;;;;8.57;5.67;;;9.50;99.90;;;;;;5088679;28;20205;-77
2021/04/18 00:15:42;;;;;;;9.03;6.00;;;9.60;99.90;;;;;;5088100;28;20251;-77
2021/04/18 00:18:10;;;;;;;8.33;5.60;;;9.60;99.90;;;;;;5088508;28;20214;-77
2021/04/18 00:20:36;;;;;;;8.17;5.53;;;9.60;99.90;;;;;;5088393;28;20210;-77
2021/04/18 00:23:03;;;;;;;9.07;5.87;;;9.50;99.90;;;;;;5088796;28;20539;-77
2021/04/18 00:25:30;;;;;;;10.70;6.23;;;9.50;99.90;;;;;;5088517;28;20211;-77
2021/04/18 00:27:57;;;;;;;8.03;6.07;;;9.50;99.90;;;;;;5088153;28;20581;-77
2021/04/18 00:30:23;;;;;;;6.70;5.67;;;9.50;99.90;;;;;;5088338;28;20218;-78
2021/04/18 00:32:51;;;;;;;6.97;5.53;;;9.50;99.90;;;;;;5088392;28;20202;-76
2021/04/18 00:35:19;;;;;;;10.73;6.60;;;9.40;99.90;;;;;;5088449;28;20202;-77
2021/04/18 00:37:46;;;;;;;13.63;5.90;;;9.40;99.90;;;;;;5087608;28;20225;-78
2021/04/18 00:40:14;;;;;;;9.57;5.93;;;9.40;99.90;;;;;;5088424;28;20199;-77
2021/04/18 00:42:41;;;;;;;8.33;5.93;;;9.40;99.90;;;;;;5088009;28;20206;-81
2021/04/18 00:45:09;;;;;;;11.60;6.10;;;9.30;99.90;;;;;;5087126;28;20240;-79
2021/04/18 00:47:39;;;;;;;10.67;6.17;;;9.30;99.90;;;;;;5081101;28;20206;-79
2021/04/18 00:50:06;;;;;;;10.10;5.80;;;9.30;99.90;;;;;;5087804;28;20238;-79
2021/04/18 00:52:33;;;;;;;9.93;6.00;;;9.10;99.90;;;;;;5082726;28;20210;-80
2021/04/18 00:55:00;;;;;;;7.47;5.40;;;9.10;99.90;;;;;;5091832;28;20658;-80
2021/04/18 00:57:26;;;;;;;6.87;5.90;;;9.10;99.90;;;;;;5091918;28;20565;-79
2021/04/18 00:59:52;;;;;;;10.97;6.60;;;9.00;99.90;;;;;;5092225;28;20210;-80
2021/04/18 01:02:18;;;;;;;8.80;6.17;;;8.90;99.90;;;;;;5092071;28;20206;-80
2021/04/18 01:04:44;;;;;;;9.57;6.10;;;9.00;99.90;;;;;;5091885;28;20198;-79
2021/04/18 01:07:11;;;;;;;6.77;5.90;;;9.00;99.90;;;;;;5091936;28;20210;-78
2021/04/18 01:09:37;;;;;;;9.23;5.67;;;9.00;99.90;;;;;;5091965;28;20277;-76
2021/04/18 01:12:04;;;;;;;8.27;5.60;;;9.10;99.90;;;;;;5091757;28;20203;-76
2021/04/18 01:14:31;;;;;;;9.10;5.80;;;9.10;99.90;;;;;;5082604;28;20264;-76
2021/04/18 01:16:57;;;;;;;9.93;6.27;;;9.10;99.90;;;;;;5071475;28;20241;-76
2021/04/18 01:19:23;;;;;;;6.37;5.67;;;9.00;99.90;;;;;;5080947;28;20634;-78
2021/04/18 01:21:50;;;;;;;7.57;6.30;;;9.00;99.90;;;;;;5091632;28;20203;-78
2021/04/18 01:24:16;;;;;;;8.63;5.90;;;9.10;99.90;;;;;;5091697;28;20207;-78
2021/04/18 01:26:43;;;;;;;9.07;6.10;;;9.10;99.90;;;;;;5091343;28;20210;-78
2021/04/18 01:29:09;;;;;;;8.40;6.10;;;9.10;99.90;;;;;;5091242;28;20266;-75
2021/04/18 01:31:35;;;;;;;8.97;6.70;;;9.10;99.90;;;;;;5091278;28;20203;-75
2021/04/18 01:34:03;;;;;;;7.37;5.70;;;9.10;99.90;;;;;;5091181;28;20241;-75
2021/04/18 01:36:29;;;;;;;8.13;6.00;;;9.10;99.90;;;;;;5091114;28;20576;-76
2021/04/18 01:38:56;;;;;;;11.77;6.40;;;9.10;99.90;;;;;;5091120;28;20276;-76
2021/04/18 01:41:22;;;;;;;6.53;5.83;;;9.10;99.90;;;;;;5091387;28;20230;-77
2021/04/18 01:43:48;;;;;;;9.57;5.97;;;9.10;99.90;;;;;;5090902;28;20610;-77
2021/04/18 01:46:15;;;;;;;9.60;5.50;;;9.10;99.90;;;;;;5091121;28;20202;-77
2021/04/18 01:48:41;;;;;;;11.10;6.50;;;9.10;99.90;;;;;;5091087;28;20226;-76
2021/04/18 01:51:09;;;;;;;11.47;6.60;;;9.10;99.90;;;;;;5091242;28;20211;-75
2021/04/18 01:53:35;;;;;;;6.70;5.80;;;9.20;99.90;;;;;;5091005;28;20260;-76
2021/04/18 01:56:03;;;;;;;9.87;6.63;;;9.20;99.90;;;;;;5090715;28;21762;-76
2021/04/18 01:58:30;;;;;;;6.60;5.80;;;9.20;99.90;;;;;;5090505;28;20661;-76
2021/04/18 02:00:56;;;;;;;8.37;6.20;;;9.20;99.90;;;;;;5090743;28;20214;-74
2021/04/18 02:03:22;;;;;;;11.73;6.17;;;9.20;99.90;;;;;;5088752;28;20256;-75
2021/04/18 02:05:48;;;;;;;9.23;6.40;;;9.20;99.90;;;;;;5090297;28;20233;-74
2021/04/18 02:08:14;;;;;;;9.53;6.17;;;9.20;99.90;;;;;;5089544;28;20222;-74
2021/04/18 02:10:40;;;;;;;9.40;7.43;;;9.20;99.90;;;;;;5089731;28;20685;-74
2021/04/18 02:13:07;;;;;;;9.07;6.37;;;9.30;99.90;;;;;;5090425;28;20199;-75
2021/04/18 02:15:33;;;;;;;10.33;6.80;;;9.30;99.90;;;;;;5090266;28;20242;-75
2021/04/18 02:18:00;;;;;;;10.70;7.00;;;9.30;99.90;;;;;;5090502;28;20576;-74
2021/04/18 02:20:26;;;;;;;10.07;6.90;;;9.30;99.90;;;;;;5090571;28;20205;-75
2021/04/18 02:22:52;;;;;;;7.70;6.03;;;9.30;99.90;;;;;;5090334;28;20215;-74
2021/04/18 02:25:18;;;;;;;10.53;7.90;;;9.30;99.90;;;;;;5090215;28;20207;-74
2021/04/18 02:27:44;;;;;;;9.07;6.63;;;9.20;99.90;;;;;;5089901;28;20235;-75
2021/04/18 02:30:12;;;;;;;10.40;7.40;;;9.30;99.90;;;;;;5090130;28;20242;-74
2021/04/18 02:32:38;;;;;;;11.50;8.00;;;9.20;99.90;;;;;;5090165;28;20248;-74
2021/04/18 02:35:06;;;;;;;11.13;7.17;;;9.20;99.90;;;;;;5090288;28;20202;-75
2021/04/18 02:37:32;;;;;;;9.90;7.17;;;9.20;99.90;;;;;;5090233;28;20203;-75
2021/04/18 02:39:58;;;;;;;8.37;7.57;;;9.20;99.90;;;;;;5090045;28;20597;-75
2021/04/18 02:42:24;;;;;;;10.90;7.87;;;9.20;99.90;;;;;;5089999;28;20207;-75
2021/04/18 02:44:51;;;;;;;11.53;7.70;;;9.20;99.90;;;;;;5089924;28;20206;-75
2021/04/18 02:47:17;;;;;;;10.70;7.30;;;9.20;99.90;;;;;;5089764;28;20275;-75
2021/04/18 02:49:44;;;;;;;11.07;7.80;;;9.20;99.90;;;;;;5089723;28;20265;-75
2021/04/18 02:52:10;;;;;;;13.97;7.97;;;9.20;99.90;;;;;;5090076;28;20595;-75
2021/04/18 02:54:36;;;;;;;9.47;7.83;;;9.20;99.90;;;;;;5089705;28;20210;-75
2021/04/18 02:57:03;;;;;;;11.00;8.80;;;9.20;99.90;;;;;;5089664;28;20203;-75
2021/04/18 02:59:29;;;;;;;12.20;9.00;;;9.10;99.90;;;;;;5089855;28;20207;-75
2021/04/18 03:01:55;;;;;;;13.27;8.80;;;9.10;99.90;;;;;;5089665;28;20265;-75
2021/04/18 03:04:22;;;;;;;13.77;9.17;;;9.10;99.90;;;;;;5089645;28;20210;-76
2021/04/18 03:06:48;;;;;;;12.03;7.47;;;9.10;99.90;;;;;;5089055;28;20658;-76
2021/04/18 03:09:14;;;;;;;12.17;8.40;;;9.10;99.90;;;;;;5089193;28;20818;-76
2021/04/18 03:11:41;;;;;;;13.30;8.47;;;9.10;99.90;;;;;;5089236;28;20292;-76
2021/04/18 03:14:07;;;;;;;10.57;9.03;;;9.10;99.90;;;;;;5089223;28;20199;-76
2021/04/18 03:16:33;;;;;;;13.20;8.77;;;9.10;99.90;;;;;;5088355;28;20273;-76
2021/04/18 03:18:59;;;;;;;13.43;9.10;;;9.10;99.90;;;;;;5089342;28;20279;-76
2021/04/18 03:21:26;;;;;;;15.50;9.50;;;9.00;99.90;;;;;;5086887;28;20206;-74
2021/04/18 03:23:52;;;;;;;14.47;9.27;;;9.00;99.90;;;;;;5088432;28;20953;-74
2021/04/18 03:26:18;;;;;;;15.67;10.43;;;9.00;99.90;;;;;;5088535;28;20210;-74
2021/04/18 03:28:44;;;;;;;14.80;11.13;;;9.00;99.90;;;;;;5088722;28;20234;-76
2021/04/18 03:31:11;;;;;;;15.97;11.10;;;9.00;99.90;;;;;;5088684;28;20255;-75
2021/04/18 03:33:37;;;;;;;14.60;10.93;;;9.00;99.90;;;;;;5089252;28;20340;-75
2021/04/18 03:36:05;;;;;;;18.53;11.83;;;9.00;99.90;;;;;;5089206;28;20207;-75
2021/04/18 03:38:32;;;;;;;20.40;12.77;;;8.90;99.90;;;;;;5088601;28;20661;-74
2021/04/18 03:40:58;;;;;;;14.70;12.10;;;8.90;99.90;;;;;;5089256;28;20282;-75
2021/04/18 03:43:24;;;;;;;18.00;12.53;;;8.90;99.90;;;;;;5085120;28;20214;-76
2021/04/18 03:45:50;;;;;;;16.90;13.47;;;8.90;99.90;;;;;;5068701;28;20200;-76
2021/04/18 03:48:16;;;;;;;15.20;13.57;;;8.90;99.90;;;;;;5068831;28;20212;-75
2021/04/18 03:50:42;;;;;;;19.40;14.37;;;8.90;99.90;;;;;;5068301;28;20605;-74
2021/04/18 03:53:08;;;;;;;18.90;14.00;;;8.90;99.90;;;;;;5068646;28;20207;-74
2021/04/18 03:55:35;;;;;;;17.93;14.60;;;8.90;99.90;;;;;;5068435;28;20199;-76
2021/04/18 03:58:01;;;;;;;21.67;15.17;;;8.90;99.90;;;;;;5068572;28;20233;-75
2021/04/18 04:00:28;;;;;;;18.77;14.60;;;8.90;99.90;;;;;;5068873;28;20211;-75
2021/04/18 04:02:54;;;;;;;19.30;15.73;;;8.90;99.90;;;;;;5076845;28;20633;-76
2021/04/18 04:05:20;;;;;;;18.27;14.63;;;8.90;99.90;;;;;;5088708;28;20222;-75
2021/04/18 04:07:46;;;;;;;20.33;14.67;;;8.90;99.90;;;;;;5088321;28;20211;-75
2021/04/18 04:10:13;;;;;;;18.60;15.03;;;8.90;99.90;;;;;;5087798;28;20268;-75
2021/04/18 04:12:40;;;;;;;18.83;14.50;;;8.80;99.90;;;;;;5087499;28;20609;-76
2021/04/18 04:15:07;;;;;;;20.30;14.73;;;8.70;99.90;;;;;;5087748;28;20234;-76
2021/04/18 04:17:33;;;;;;;20.10;15.13;;;8.70;99.90;;;;;;5087933;28;20257;-75
2021/04/18 04:20:00;;;;;;;22.03;15.47;;;8.70;99.90;;;;;;5088246;28;20216;-75
2021/04/18 04:22:26;;;;;;;22.07;15.50;;;8.70;99.90;;;;;;5088133;28;20627;-76
2021/04/18 04:24:53;;;;;;;23.50;17.10;;;8.80;99.90;;;;;;5088391;28;20215;-76
2021/04/18 04:27:20;;;;;;;26.33;17.40;;;8.80;99.90;;;;;;5088781;28;20207;-75
2021/04/18 04:29:47;;;;;;;23.40;17.40;;;8.70;99.90;;;;;;5092351;28;20291;-76
2021/04/18 04:32:13;;;;;;;27.57;17.70;;;8.70;99.90;;;;;;5092721;28;20206;-75
2021/04/18 04:34:40;;;;;;;22.40;16.77;;;8.70;99.90;;;;;;5092454;28;20235;-76
2021/04/18 04:37:06;;;;;;;26.20;17.63;;;8.70;99.90;;;;;;5092353;28;20203;-75
2021/04/18 04:39:32;;;;;;;27.03;17.70;;;8.70;99.90;;;;;;5092373;28;20206;-76
2021/04/18 04:42:00;;;;;;;28.63;18.40;;;8.70;99.90;;;;;;5092441;28;20206;-76
2021/04/18 04:44:26;;;;;;;28.67;18.27;;;8.70;99.90;;;;;;5092197;28;20258;-76
2021/04/18 04:46:53;;;;;;;24.83;17.37;;;8.70;99.90;;;;;;5091660;28;20203;-76
2021/04/18 04:49:21;;;;;;;27.80;17.93;;;8.70;99.90;;;;;;5083968;28;20234;-74
2021/04/18 04:51:47;;;;;;;29.10;18.60;;;8.70;99.90;;;;;;5091020;28;20719;-74
2021/04/18 04:54:13;;;;;;;28.83;18.00;;;8.80;99.90;;;;;;5092305;28;20202;-74
2021/04/18 04:56:39;;;;;;;26.07;18.17;;;8.70;99.90;;;;;;5091885;28;20206;-74
2021/04/18 04:59:05;;;;;;;28.40;18.63;;;8.70;99.90;;;;;;5091914;28;20221;-75
2021/04/18 05:01:31;;;;;;;31.37;19.03;;;8.70;99.90;;;;;;5092125;28;20203;-75
2021/04/18 05:03:58;;;;;;;25.47;17.50;;;8.70;99.90;;;;;;5091852;28;20203;-75
2021/04/18 05:06:24;;;;;;;25.00;18.23;;;8.70;99.90;;;;;;5092036;28;20206;-75
2021/04/18 05:08:51;;;;;;;27.50;17.53;;;8.70;99.90;;;;;;5091890;28;20230;-76
2021/04/18 05:11:17;;;;;;;26.47;18.83;;;8.70;99.90;;;;;;5091537;28;20605;-76
2021/04/18 05:13:43;;;;;;;28.60;17.97;;;8.70;99.90;;;;;;5091691;28;20221;-76
2021/04/18 05:16:09;;;;;;;25.53;17.40;;;8.70;99.90;;;;;;5091425;28;20242;-75
2021/04/18 05:18:35;;;;;;;22.90;17.53;;;8.70;99.90;;;;;;5091766;28;20224;-76
2021/04/18 05:21:02;;;;;;;21.00;17.07;;;8.70;99.90;;;;;;5091484;28;20206;-76
2021/04/18 05:23:29;;;;;;;24.20;16.80;;;8.70;99.90;;;;;;5091412;28;20210;-76
2021/04/18 05:25:55;;;;;;;24.83;17.03;;;8.60;99.90;;;;;;5091460;28;20207;-75
2021/04/18 05:28:22;;;;;;;25.67;17.83;;;8.60;99.90;;;;;;5091009;28;20730;-75
2021/04/18 05:30:48;;;;;;;23.90;17.03;;;8.70;99.90;;;;;;5091070;28;20884;-75
2021/04/18 05:33:14;;;;;;;20.57;16.37;;;8.60;99.90;;;;;;5091312;28;20252;-75
2021/04/18 05:35:40;;;;;;;24.53;17.17;;;8.60;99.90;;;;;;5091274;28;20210;-75
2021/04/18 05:38:07;;;;;;;23.83;17.77;;;8.60;99.90;;;;;;5090664;28;20542;-75
2021/04/18 05:40:33;;;;;;;25.53;16.80;;;8.60;99.90;;;;;;5091020;28;20210;-75
2021/04/18 05:42:59;;;;;;;25.97;17.83;;;8.60;99.90;;;;;;5090912;28;20218;-75
2021/04/18 05:45:26;;;;;;;22.93;16.50;;;8.60;99.90;;;;;;5091186;28;20214;-76
2021/04/18 05:47:52;;;;;;;26.67;18.20;;;8.50;99.90;;;;;;5090544;28;20693;-75
2021/04/18 05:50:18;;;;;;;23.43;17.13;;;8.50;99.90;;;;;;5090814;28;20235;-74
2021/04/18 05:52:44;;;;;;;19.70;15.37;;;8.50;99.90;;;;;;5090932;28;20207;-75
2021/04/18 05:55:12;;;;;;;21.23;16.57;;;8.50;99.90;;;;;;5090881;28;20291;-75
2021/04/18 05:57:38;;;;;;;19.03;15.53;;;8.50;99.90;;;;;;5090892;28;20588;-76
2021/04/18 06:00:05;;;;;;;19.77;15.80;;;8.40;99.90;;;;;;5090828;28;20206;-76
2021/04/18 06:02:31;;;;;;;19.03;15.53;;;8.40;99.90;;;;;;5090724;28;20207;-75
2021/04/18 06:04:57;;;;;;;19.57;15.07;;;8.40;99.90;;;;;;5090491;28;20230;-74
2021/04/18 06:07:24;;;;;;;20.57;16.10;;;8.40;99.90;;;;;;5089702;28;20692;-74
2021/04/18 06:09:50;;;;;;;21.83;16.77;;;8.40;99.90;;;;;;5089900;28;20227;-76
2021/04/18 06:12:17;;;;;;;21.03;16.70;;;8.40;99.90;;;;;;5089514;28;20630;-75
2021/04/18 06:14:43;;;;;;;21.03;15.97;;;8.50;99.90;;;;;;5090049;28;20214;-75
2021/04/18 06:17:09;;;;;;;21.70;16.40;;;8.50;99.90;;;;;;5090748;28;20212;-75
2021/04/18 06:19:37;;;;;;;22.20;17.33;;;8.50;99.90;;;;;;5090481;28;20210;-75
2021/04/18 06:22:03;;;;;;;24.43;18.17;;;8.40;99.90;;;;;;5090278;28;20205;-75
2021/04/18 06:24:30;;;;;;;25.93;17.63;;;8.40;99.90;;;;;;5090229;28;20260;-75
2021/04/18 06:26:56;;;;;;;24.97;18.70;;;8.40;99.90;;;;;;5090163;28;20203;-74
2021/04/18 06:29:23;;;;;;;27.03;18.83;;;8.40;99.90;;;;;;5090188;28;20238;-74
2021/04/18 06:31:49;;;;;;;27.13;19.07;;;8.30;99.90;;;;;;5090101;28;20211;-75
2021/04/18 06:34:20;;;;;;;26.93;20.00;;;8.20;99.90;;;;;;5090266;28;20207;-77
2021/04/18 06:36:47;;;;;;;26.67;19.10;;;8.20;99.90;;;;;;5078253;28;20195;-76
2021/04/18 06:39:13;;;;;;;25.90;18.90;;;8.30;99.90;;;;;;5080882;28;20204;-76
2021/04/18 06:41:40;;;;;;;27.40;19.17;;;8.30;99.90;;;;;;5083696;28;20203;-76
2021/04/18 06:44:06;;;;;;;29.43;20.13;;;8.30;99.90;;;;;;5077842;28;20734;-76
2021/04/18 06:46:33;;;;;;;28.93;19.07;;;8.30;99.90;;;;;;5080475;28;20231;-77
2021/04/18 06:48:59;;;;;;;23.73;18.67;;;8.30;99.90;;;;;;5080858;28;20230;-77
2021/04/18 06:51:26;;;;;;;21.57;17.03;;;8.40;99.90;;;;;;5074784;28;20210;-77
2021/04/18 06:53:52;;;;;;;22.80;17.37;;;8.50;99.90;;;;;;5080117;28;20207;-79
2021/04/18 06:56:19;;;;;;;24.23;17.23;;;8.50;99.90;;;;;;5076449;28;20207;-78
2021/04/18 06:58:45;;;;;;;23.27;16.87;;;8.50;99.90;;;;;;5081439;28;20207;-78
2021/04/18 07:01:11;;;;;;;25.83;17.90;;;8.50;99.90;;;;;;5077846;28;20200;-80
2021/04/18 07:03:38;;;;;;;25.87;17.37;;;8.50;99.90;;;;;;5081771;28;20214;-79
2021/04/18 07:06:04;;;;;;;19.87;16.53;;;8.50;99.90;;;;;;5079987;28;20227;-80
2021/04/18 07:08:32;;;;;;;21.67;16.30;;;8.50;99.90;;;;;;5080499;28;20210;-79
2021/04/18 07:11:13;;;;;;;24.30;16.60;;;8.50;99.90;;;;;;5076010;28;20200;-80
2021/04/18 07:13:47;;;;;;;19.93;15.63;;;8.60;99.90;;;;;;5080199;28;20206;-78
2021/04/18 07:16:24;;;;;;;21.30;16.23;;;8.50;99.90;;;;;;5079730;28;20227;-77
2021/04/18 07:18:52;;;;;;;21.57;16.83;;;8.50;99.90;;;;;;5074410;28;20207;-77
2021/04/18 07:21:18;;;;;;;23.47;16.60;;;8.50;99.90;;;;;;5084875;28;20203;-75
2021/04/18 07:23:44;;;;;;;22.87;17.40;;;8.50;99.90;;;;;;5086743;28;20218;-76
2021/04/18 07:26:23;;;;;;;18.87;15.33;;;8.60;99.90;;;;;;5084830;28;20222;-75
2021/04/18 07:28:50;;;;;;;22.77;17.20;;;8.60;99.90;;;;;;5083596;28;20219;-75
2021/04/18 07:31:30;;;;;;;23.40;16.73;;;8.60;99.90;;;;;;5080992;28;20210;-75
2021/04/18 07:34:05;;;;;;;20.50;16.60;;;8.70;99.90;;;;;;5090370;28;20215;-86
2021/04/18 07:36:33;;;;;;;21.87;16.60;;;8.60;99.90;;;;;;5088915;28;20210;-76
2021/04/18 07:42:34;;;;;;;23.57;16.13;;;8.60;99.90;;;;;;5072615;28;20252;-76
2021/04/18 07:45:02;;;;;;;19.63;16.27;;;8.60;99.90;;;;;;5068879;28;20447;-75
2021/04/18 07:47:29;;;;;;;19.57;15.40;;;8.60;99.90;;;;;;5079781;28;20207;-75
2021/04/18 07:49:57;;;;;;;18.23;15.20;;;8.60;99.90;;;;;;5088269;28;20636;-75
2021/04/18 07:52:24;;;;;;;20.70;15.97;;;8.60;99.90;;;;;;5088333;28;20203;-75
2021/04/18 07:54:51;;;;;;;20.53;15.40;;;8.60;99.90;;;;;;5086922;28;20240;-75
2021/04/18 07:57:20;;;;;;;22.57;14.93;;;8.50;99.90;;;;;;5086458;28;20256;-76
2021/04/18 07:59:47;;;;;;;17.17;14.80;;;8.50;99.90;;;;;;5088798;28;20317;-75
2021/04/18 08:02:16;;;;;;;23.37;15.60;;;8.50;99.90;;;;;;5087479;28;20213;-75
2021/04/18 08:04:43;;;;;;;17.00;14.33;;;8.50;99.90;;;;;;5087754;28;20295;-75
2021/04/18 08:07:11;;;;;;;20.13;13.93;;;8.50;99.90;;;;;;5087734;28;20206;-75
2021/04/18 08:09:37;;;;;;;14.23;12.73;;;8.60;99.90;;;;;;5088006;28;20234;-75
2021/04/18 08:12:11;;;;;;;14.90;12.47;;;8.50;99.90;;;;;;5088106;28;20681;-75
2021/04/18 08:14:38;;;;;;;13.47;12.00;;;8.50;99.90;;;;;;5088317;28;20206;-76
2021/04/18 08:17:06;;;;;;;12.43;11.20;;;8.50;99.90;;;;;;5088033;28;20220;-75
2021/04/18 08:19:32;;;;;;;13.10;11.70;;;8.50;99.90;;;;;;5088385;28;20206;-76
2021/04/18 08:21:59;;;;;;;13.10;11.57;;;8.60;99.90;;;;;;5088475;28;20203;-76
2021/04/18 08:24:35;;;;;;;12.53;11.17;;;8.60;99.90;;;;;;5078880;28;21000;-76
2021/04/18 08:27:03;;;;;;;12.10;10.90;;;8.60;99.90;;;;;;5078264;28;20234;-74
2021/04/18 08:29:30;;;;;;;14.23;12.07;;;8.70;99.90;;;;;;5078012;28;20317;-74
2021/04/18 08:32:08;;;;;;;11.50;10.23;;;8.70;99.90;;;;;;5078129;28;20212;-76
2021/04/18 08:34:37;;;;;;;12.47;11.17;;;8.70;99.90;;;;;;5073352;28;20203;-75
2021/04/18 08:37:05;;;;;;;11.17;9.93;;;8.70;99.90;;;;;;5084474;28;20207;-75
2021/04/18 08:39:35;;;;;;;11.33;9.87;;;8.70;99.90;;;;;;5088349;28;20211;-75
2021/04/18 08:42:05;;;;;;;10.23;9.30;;;8.70;99.90;;;;;;5088307;28;20190;-76
2021/04/18 08:44:42;;;;;;;9.27;8.37;;;8.70;99.90;;;;;;5088064;28;20207;-76
2021/04/18 08:47:11;;;;;;;10.23;9.17;;;8.70;99.90;;;;;;5088312;28;20222;-75
2021/04/18 08:49:39;;;;;;;11.33;10.17;;;8.70;99.90;;;;;;5088235;28;20260;-76
2021/04/18 08:52:07;;;;;;;10.37;9.30;;;8.70;99.90;;;;;;5088186;28;20569;-75
2021/04/18 08:54:36;;;;;;;9.20;8.30;;;8.70;99.90;;;;;;5088443;28;20272;-76
2021/04/18 08:57:04;;;;;;;9.40;8.40;;;8.70;99.90;;;;;;5087927;28;20233;-75
2021/04/18 08:59:31;;;;;;;8.80;8.00;;;8.80;99.90;;;;;;5088309;28;20293;-75
2021/04/18 09:02:01;;;;;;;8.70;7.90;;;8.80;99.90;;;;;;5087957;28;20256;-75
2021/04/18 09:04:28;;;;;;;8.87;8.07;;;8.90;99.90;;;;;;5088233;28;20230;-75
2021/04/18 09:06:55;;;;;;;9.10;8.20;;;8.90;99.90;;;;;;5082764;28;20214;-75
2021/04/18 09:09:34;;;;;;;8.60;7.80;;;9.00;99.90;;;;;;5073020;28;20226;-76
2021/04/18 09:12:01;;;;;;;8.53;7.80;;;9.10;99.90;;;;;;5075728;28;20218;-75
2021/04/18 09:14:30;;;;;;;7.90;7.17;;;9.10;99.90;;;;;;5077401;28;20211;-76
2021/04/18 09:17:11;;;;;;;9.30;8.50;;;9.20;99.90;;;;;;5090148;28;20207;-76
2021/04/18 09:19:37;;;;;;;8.77;8.10;;;9.30;99.90;;;;;;5091185;28;20213;-74
2021/04/18 09:22:07;;;;;;;8.37;7.73;;;9.20;99.90;;;;;;5088422;28;20283;-75
2021/04/18 09:24:37;;;;;;;8.23;7.53;;;9.20;99.90;;;;;;5090413;28;20206;-76
2021/04/18 09:27:07;;;;;;;8.80;8.10;;;9.10;99.90;;;;;;5091277;28;20584;-75
2021/04/18 09:29:34;;;;;;;8.17;7.47;;;9.10;99.90;;;;;;5091187;28;20433;-76
2021/04/18 09:32:06;;;;;;;8.47;7.67;;;9.00;99.90;;;;;;5091183;28;20218;-75
2021/04/18 09:34:34;;;;;;;9.13;8.23;;;8.80;99.90;;;;;;5090956;28;20598;-76
2021/04/18 09:37:10;;;;;;;9.33;8.53;;;8.80;99.90;;;;;;5090827;28;20297;-78
2021/04/18 09:39:37;;;;;;;8.40;7.70;;;8.80;99.90;;;;;;5086035;28;20203;-75
2021/04/18 09:42:09;;;;;;;8.50;7.80;;;8.80;99.90;;;;;;5070964;28;20242;-75
2021/04/18 09:44:41;;;;;;;8.70;8.00;;;8.80;99.90;;;;;;5070849;28;20214;-75
2021/04/18 09:47:17;;;;;;;8.90;8.00;;;8.80;99.90;;;;;;5070673;28;20211;-75
2021/04/18 09:49:49;;;;;;;7.80;7.10;;;8.70;99.90;;;;;;5070346;28;20231;-75
2021/04/18 09:52:40;;;;;;;7.33;6.77;;;8.70;99.90;;;;;;5070731;28;20272;-76
2021/04/18 09:55:08;;;;;;;7.83;7.20;;;8.60;99.90;;;;;;5061122;28;20211;-75
2021/04/18 09:57:51;;;;;;;7.20;6.70;;;8.60;99.90;;;;;;5090896;28;20207;-75
2021/04/18 10:00:21;;;;;;;8.33;7.63;;;8.60;99.90;;;;;;5089290;28;20218;-75
2021/04/18 10:03:11;;;;;;;8.40;7.70;;;8.60;99.90;;;;;;5071848;28;20211;-75
2021/04/18 10:05:55;;;;;;;8.10;7.40;;;8.70;99.90;;;;;;5070320;28;20238;-75
2021/04/18 10:08:23;;;;;;;8.20;7.40;;;8.80;99.90;;;;;;5088146;28;20199;-75
2021/04/18 10:10:52;;;;;;;8.37;7.67;;;8.90;99.90;;;;;;5089295;28;20688;-75
2021/04/18 10:13:41;;;;;;;8.33;7.67;;;8.80;99.90;;;;;;5090210;28;20202;-75
2021/04/18 10:16:08;;;;;;;7.80;7.20;;;9.00;99.90;;;;;;5090137;28;20235;-75
2021/04/18 10:18:35;;;;;;;8.30;7.60;;;9.10;99.90;;;;;;5090574;28;20633;-75
2021/04/18 10:21:15;;;;;;;9.27;8.47;;;9.10;99.90;;;;;;5090455;28;20267;-75
2021/04/18 10:23:41;;;;;;;8.27;7.53;;;9.30;99.90;;;;;;5090490;28;20213;-75
2021/04/18 10:26:08;;;;;;;8.57;7.87;;;9.30;99.90;;;;;;5090376;28;20214;-75
2021/04/18 10:28:34;;;;;;;8.43;7.80;;;9.40;99.90;;;;;;5070101;28;20207;-75
2021/04/18 10:31:01;;;;;;;8.73;8.03;;;9.40;99.90;;;;;;5069905;28;20231;-75
2021/04/18 10:33:27;;;;;;;8.90;8.20;;;9.40;99.90;;;;;;5071829;28;20204;-75
2021/04/18 10:35:55;;;;;;;8.80;8.10;;;9.50;99.90;;;;;;5078282;28;20210;-76
2021/04/18 10:38:21;;;;;;;8.80;8.03;;;9.50;99.90;;;;;;5080673;28;20233;-75
2021/04/18 10:40:47;;;;;;;9.03;8.23;;;9.60;99.90;;;;;;5081681;28;20207;-76
2021/04/18 10:43:13;;;;;;;9.53;8.73;;;9.60;99.90;;;;;;5083676;28;20211;-76
2021/04/18 10:45:40;;;;;;;8.60;7.90;;;9.60;99.90;;;;;;5087128;28;20207;-76
2021/04/18 10:48:07;;;;;;;9.40;8.60;;;9.70;99.90;;;;;;5087765;28;20207;-76
2021/04/18 10:50:34;;;;;;;9.67;8.47;;;9.60;99.90;;;;;;5087529;28;20231;-76
2021/04/18 10:53:00;;;;;;;10.20;9.30;;;9.70;99.90;;;;;;5087396;28;20218;-76
2021/04/18 10:55:26;;;;;;;9.30;8.60;;;9.90;99.90;;;;;;5087320;28;20234;-76
2021/04/18 10:57:52;;;;;;;10.37;9.40;;;10.10;99.90;;;;;;5087053;28;20207;-76
2021/04/18 11:00:19;;;;;;;10.40;9.40;;;10.30;99.90;;;;;;5087380;28;20449;-76
2021/04/18 11:02:46;;;;;;;9.50;8.70;;;10.50;99.90;;;;;;5087467;28;20521;-76
2021/04/18 11:05:14;;;;;;;10.47;9.57;;;10.60;99.90;;;;;;5087185;28;20227;-76
2021/04/18 11:07:40;;;;;;;10.17;9.27;;;10.80;99.90;;;;;;5087432;28;20240;-77
2021/04/18 11:10:07;;;;;;;10.83;9.93;;;10.90;99.90;;;;;;5087331;28;20253;-77
2021/04/18 11:12:34;;;;;;;10.50;9.60;;;11.00;99.90;;;;;;5087325;28;20687;-76
2021/04/18 11:15:01;;;;;;;11.17;10.07;;;11.30;99.90;;;;;;5086985;28;20238;-76
2021/04/18 11:17:27;;;;;;;10.17;9.27;;;11.30;99.90;;;;;;5083520;28;20325;-76
2021/04/18 11:19:56;;;;;;;10.17;9.17;;;11.40;99.90;;;;;;5089154;28;20206;-76
2021/04/18 11:22:24;;;;;;;10.03;9.27;;;11.40;99.90;;;;;;5089151;28;20203;-76
2021/04/18 11:24:50;;;;;;;11.07;10.17;;;11.40;99.90;;;;;;5089504;28;20245;-77
2021/04/18 11:27:17;;;;;;;10.90;9.87;;;11.40;99.90;;;;;;5087541;28;20203;-76
2021/04/18 11:29:43;;;;;;;11.13;10.23;;;11.60;99.90;;;;;;5087245;28;20241;-76
2021/04/18 11:32:11;;;;;;;11.37;10.47;;;11.60;99.90;;;;;;5082407;28;20211;-76
2021/04/18 11:34:37;;;;;;;10.67;9.77;;;11.70;99.90;;;;;;5066131;28;20662;-76
2021/04/18 11:37:04;;;;;;;11.47;10.37;;;11.70;99.90;;;;;;5070044;28;20226;-76
2021/04/18 11:39:32;;;;;;;11.80;10.80;;;11.60;99.90;;;;;;5086704;28;20322;-76
2021/04/18 11:41:58;;;;;;;11.23;10.20;;;11.50;99.90;;;;;;5082614;28;20261;-76
2021/04/18 11:44:25;;;;;;;11.00;10.07;;;11.50;99.90;;;;;;5066533;28;20288;-76
2021/04/18 11:46:51;;;;;;;11.27;10.37;;;11.40;99.90;;;;;;5067603;28;21017;-76
2021/04/18 11:49:19;;;;;;;10.50;9.60;;;11.40;99.90;;;;;;5087129;28;20222;-76
2021/04/18 11:51:45;;;;;;;9.90;9.10;;;11.40;99.90;;;;;;5087335;28;20207;-77
2021/04/18 11:54:12;;;;;;;10.07;9.23;;;11.40;99.90;;;;;;5087587;28;20259;-76
2021/04/18 11:56:39;;;;;;;9.90;9.00;;;11.40;99.90;;;;;;5087627;28;20207;-76
2021/04/18 11:59:05;;;;;;;8.97;8.13;;;11.40;99.90;;;;;;5086458;28;20238;-77
2021/04/18 12:01:32;;;;;;;10.40;9.50;;;11.40;99.90;;;;;;5086379;28;20568;-77
2021/04/18 12:03:59;;;;;;;9.67;8.87;;;11.30;99.90;;;;;;5086156;28;20235;-77
2021/04/18 12:06:25;;;;;;;9.60;8.80;;;11.40;99.90;;;;;;5086316;28;20316;-77
2021/04/18 12:08:54;;;;;;;9.80;8.90;;;11.40;99.90;;;;;;5085981;28;20206;-76
2021/04/18 12:11:20;;;;;;;9.80;9.10;;;11.50;99.90;;;;;;5086223;28;20288;-77
2021/04/18 12:13:47;;;;;;;10.20;9.23;;;11.50;99.90;;;;;;5079855;28;20253;-76
2021/04/18 12:16:14;;;;;;;10.07;9.17;;;11.50;99.90;;;;;;5079924;28;20239;-76
2021/04/18 12:18:41;;;;;;;9.50;8.70;;;11.60;99.90;;;;;;5072419;28;20211;-76
2021/04/18 12:21:08;;;;;;;10.07;9.27;;;11.60;99.90;;;;;;5065885;28;20593;-76
2021/04/18 12:23:34;;;;;;;9.23;8.43;;;11.60;99.90;;;;;;5067526;28;20204;-76
2021/04/18 12:26:00;;;;;;;9.63;8.80;;;11.70;99.90;;;;;;5075624;28;20976;-76
2021/04/18 12:28:27;;;;;;;10.00;9.17;;;11.80;99.90;;;;;;5073484;28;20466;-76
2021/04/18 12:30:54;;;;;;;9.50;8.53;;;11.80;99.90;;;;;;5072334;28;20237;-76
2021/04/18 12:33:20;;;;;;;10.00;9.20;;;11.80;99.90;;;;;;5072324;28;20449;-76
2021/04/18 12:35:46;;;;;;;9.60;8.80;;;11.80;99.90;;;;;;5079144;28;20259;-76
2021/04/18 12:38:15;;;;;;;10.30;9.20;;;11.90;99.90;;;;;;5078339;28;20202;-76
2021/04/18 12:40:41;;;;;;;9.23;8.53;;;12.10;99.90;;;;;;5072414;28;20199;-77
2021/04/18 12:43:07;;;;;;;8.93;8.10;;;12.20;99.90;;;;;;5080521;28;20680;-81
2021/04/18 12:45:34;;;;;;;8.97;8.17;;;12.50;99.90;;;;;;5087307;28;20206;-82
2021/04/18 12:48:01;;;;;;;9.37;8.57;;;12.70;99.90;;;;;;5076081;28;20213;-77
2021/04/18 12:50:27;;;;;;;8.23;7.63;;;12.70;99.90;;;;;;5069544;28;20234;-77